createdAt,value
2018-04-18T00:01:51.717Z,101047
2018-04-18T00:04:19.874Z,101047
2018-04-18T00:06:48.795Z,101054
2018-04-18T00:09:16.930Z,101057
2018-04-18T00:11:45.960Z,101057
2018-04-18T00:14:14.146Z,101056
2018-04-18T00:16:42.294Z,101055
2018-04-18T00:19:11.198Z,101059
2018-04-18T00:21:40.075Z,101051
2018-04-18T00:24:08.248Z,101056
2018-04-18T00:26:36.378Z,101051
2018-04-18T00:29:04.503Z,101049
2018-04-18T00:31:32.642Z,101052
2018-04-18T00:34:00.817Z,101050
2018-04-18T00:36:29.006Z,101053
2018-04-18T00:38:57.136Z,101052
2018-04-18T00:41:26.045Z,101048
2018-04-18T00:43:54.185Z,101048
2018-04-18T00:46:22.408Z,101048
2018-04-18T00:48:50.577Z,101036
2018-04-18T00:51:18.716Z,101040
2018-04-18T00:53:46.870Z,101041
2018-04-18T00:56:15.274Z,101040
2018-04-18T00:58:44.261Z,101039
2018-04-18T01:01:12.408Z,101042
2018-04-18T01:03:40.529Z,101045
2018-04-18T01:06:08.684Z,101037
2018-04-18T01:08:36.832Z,101034
2018-04-18T01:11:05.068Z,101037
2018-04-18T01:13:33.196Z,101032
2018-04-18T01:16:02.998Z,101031
2018-04-18T01:18:31.145Z,101032
2018-04-18T01:21:00.060Z,101039
2018-04-18T01:23:28.950Z,101037
2018-04-18T01:25:57.857Z,101037
2018-04-18T01:28:25.969Z,101031
2018-04-18T01:30:54.123Z,101032
2018-04-18T01:33:22.290Z,101031
2018-04-18T01:35:50.458Z,101033
2018-04-18T01:38:19.409Z,101024
2018-04-18T01:40:47.613Z,101032
2018-04-18T01:43:16.518Z,101022
2018-04-18T01:45:45.398Z,101017
2018-04-18T01:48:14.334Z,101020
2018-04-18T01:50:42.503Z,101021
2018-04-18T01:53:10.697Z,101014
2018-04-18T01:55:38.848Z,101025
2018-04-18T01:58:07.775Z,101032
2018-04-18T02:00:35.950Z,101033
2018-04-18T02:03:04.126Z,101033
2018-04-18T02:05:32.278Z,101038
2018-04-18T02:08:01.196Z,101039
2018-04-18T02:10:29.360Z,101046
2018-04-18T02:12:58.252Z,101034
2018-04-18T02:15:27.174Z,101037
2018-04-18T02:17:55.295Z,101045
2018-04-18T02:20:23.499Z,101044
2018-04-18T02:22:51.675Z,101041
2018-04-18T02:25:20.578Z,101040
2018-04-18T02:27:49.488Z,101048
2018-04-18T02:30:17.622Z,101042
2018-04-18T02:32:45.755Z,101045
2018-04-18T02:35:13.877Z,101048
2018-04-18T02:37:42.060Z,101052
2018-04-18T02:40:11.023Z,101050
2018-04-18T02:42:39.153Z,101061
2018-04-18T02:45:08.079Z,101052
2018-04-18T02:47:36.260Z,101055
2018-04-18T02:50:04.415Z,101053
2018-04-18T02:52:33.343Z,101060
2018-04-18T02:55:01.531Z,101061
2018-04-18T02:57:29.768Z,101058
2018-04-18T02:59:57.931Z,101050
2018-04-18T03:02:26.858Z,101055
2018-04-18T03:04:55.007Z,101050
2018-04-18T03:07:24.034Z,101054
2018-04-18T03:09:52.183Z,101058
2018-04-18T03:12:21.111Z,101061
2018-04-18T03:14:49.333Z,101059
2018-04-18T03:17:17.479Z,101063
2018-04-18T03:19:45.619Z,101058
2018-04-18T03:22:14.558Z,101068
2018-04-18T03:24:42.719Z,101058
2018-04-18T03:27:10.843Z,101059
2018-04-18T03:29:39.051Z,101056
2018-04-18T03:32:07.991Z,101053
2018-04-18T03:34:36.152Z,101067
2018-04-18T03:37:04.271Z,101060
2018-04-18T03:39:32.433Z,101064
2018-04-18T03:42:00.572Z,101072
2018-04-18T03:44:28.835Z,101065
2018-04-18T03:46:57.792Z,101074
2018-04-18T03:49:25.963Z,101079
2018-04-18T03:51:54.180Z,101081
2018-04-18T03:54:23.117Z,101081
2018-04-18T03:56:51.245Z,101088
2018-04-18T03:59:20.151Z,101089
2018-04-18T04:01:49.111Z,101088
2018-04-18T04:04:17.286Z,101090
2018-04-18T04:06:45.419Z,101089
2018-04-18T04:09:13.567Z,101089
2018-04-18T04:11:41.731Z,101088
2018-04-18T04:14:10.680Z,101091
2018-04-18T04:16:56.914Z,101096
2018-04-18T04:22:55.871Z,101104
2018-04-18T04:25:23.992Z,101102
2018-04-18T04:27:52.123Z,101108
2018-04-18T04:30:20.261Z,101105
2018-04-18T04:32:49.210Z,101110
2018-04-18T04:35:17.334Z,101114
2018-04-18T04:37:46.229Z,101111
2018-04-18T04:40:15.133Z,101122
2018-04-18T04:42:44.013Z,101122
2018-04-18T04:45:12.915Z,101124
2018-04-18T04:47:41.854Z,101126
2018-04-18T04:50:10.018Z,101132
2018-04-18T04:52:38.186Z,101132
2018-04-18T04:55:07.064Z,101128
2018-04-18T04:57:36.289Z,101133
2018-04-18T05:00:04.411Z,101135
2018-04-18T05:02:32.587Z,101135
2018-04-18T05:05:00.671Z,101135
2018-04-18T05:07:29.520Z,101138
2018-04-18T05:09:57.661Z,101147
2018-04-18T05:12:26.641Z,101147
2018-04-18T05:14:54.773Z,101157
2018-04-18T05:17:23.201Z,101160
2018-04-18T05:19:51.308Z,101161
2018-04-18T05:22:20.187Z,101164
2018-04-18T05:27:24.637Z,101163
2018-04-18T05:29:52.824Z,101172
2018-04-18T05:32:21.726Z,101183
2018-04-18T05:34:50.942Z,101187
2018-04-18T05:37:19.144Z,101183
2018-04-18T05:39:48.024Z,101181
2018-04-18T05:42:16.175Z,101176
2018-04-18T05:44:45.135Z,101187
2018-04-18T05:47:13.276Z,101182
2018-04-18T05:49:41.401Z,101187
2018-04-18T05:52:09.599Z,101192
2018-04-18T05:54:39.044Z,101190
2018-04-18T05:57:07.246Z,101197
2018-04-18T05:59:35.573Z,101197
2018-04-18T06:02:04.505Z,101192
2018-04-18T06:04:32.765Z,101199
2018-04-18T06:07:00.891Z,101200
2018-04-18T06:09:29.280Z,101203
2018-04-18T06:11:57.479Z,101197
2018-04-18T06:14:26.481Z,101206
2018-04-18T06:16:54.584Z,101211
2018-04-18T06:19:22.714Z,101212
2018-04-18T06:21:50.894Z,101209
2018-04-18T06:24:19.048Z,101207
2018-04-18T06:26:47.240Z,101205
2018-04-18T06:29:15.385Z,101209
2018-04-18T06:31:43.600Z,101210
2018-04-18T06:34:12.202Z,101202
2018-04-18T06:36:40.321Z,101211
2018-04-18T06:39:08.450Z,101200
2018-04-18T06:41:36.635Z,101205
2018-04-18T06:44:04.965Z,101201
2018-04-18T06:46:33.117Z,101201
2018-04-18T06:49:02.032Z,101203
2018-04-18T06:51:30.203Z,101214
2018-04-18T06:53:58.351Z,101212
2018-04-18T06:56:26.510Z,101221
2018-04-18T06:58:55.511Z,101211
2018-04-18T07:01:23.666Z,101220
2018-04-18T07:03:51.802Z,101222
2018-04-18T07:06:20.712Z,101225
2018-04-18T07:08:48.923Z,101216
2018-04-18T07:11:17.046Z,101223
2018-04-18T07:13:45.965Z,101228
2018-04-18T07:16:14.097Z,101221
2018-04-18T07:18:43.766Z,101218
2018-04-18T07:21:11.904Z,101221
2018-04-18T07:23:40.793Z,101218
2018-04-18T07:26:08.976Z,101222
2018-04-18T07:28:37.090Z,101229
2018-04-18T07:31:05.227Z,101227
2018-04-18T07:33:33.485Z,101232
2018-04-18T07:36:01.708Z,101235
2018-04-18T07:38:29.841Z,101228
2018-04-18T07:40:57.958Z,101225
2018-04-18T07:43:26.856Z,101226
2018-04-18T07:45:55.742Z,101224
2018-04-18T07:48:24.643Z,101231
2018-04-18T07:50:53.565Z,101236
2018-04-18T07:53:21.689Z,101235
2018-04-18T07:55:49.797Z,101234
2018-04-18T07:58:18.715Z,101240
2018-04-18T08:00:47.014Z,101235
2018-04-18T08:03:15.251Z,101233
2018-04-18T08:05:44.193Z,101238
2018-04-18T08:08:12.309Z,101241
2018-04-18T08:10:41.217Z,101246
2018-04-18T08:13:10.145Z,101240
2018-04-18T08:15:38.272Z,101238
2018-04-18T08:18:06.500Z,101239
2018-04-18T08:20:34.723Z,101239
2018-04-18T08:23:02.913Z,101250
2018-04-18T08:25:31.058Z,101245
2018-04-18T08:27:59.195Z,101239
2018-04-18T08:30:27.388Z,101249
2018-04-18T08:32:55.592Z,101242
2018-04-18T08:35:23.702Z,101251
2018-04-18T08:37:51.853Z,101248
2018-04-18T08:40:20.052Z,101253
2018-04-18T08:42:48.200Z,101253
2018-04-18T08:45:16.388Z,101254
2018-04-18T08:47:44.580Z,101258
2018-04-18T08:50:13.486Z,101255
2018-04-18T08:52:42.397Z,101266
2018-04-18T08:55:11.310Z,101265
2018-04-18T08:57:39.425Z,101271
2018-04-18T09:00:07.617Z,101271
2018-04-18T09:02:35.732Z,101268
2018-04-18T09:05:04.630Z,101268
2018-04-18T09:07:32.804Z,101267
2018-04-18T09:10:01.826Z,101271
2018-04-18T09:12:29.966Z,101262
2018-04-18T09:14:58.859Z,101262
2018-04-18T09:17:27.753Z,101272
2018-04-18T09:19:56.622Z,101264
2018-04-18T09:22:24.922Z,101265
2018-04-18T09:24:53.052Z,101273
2018-04-18T09:27:21.181Z,101270
2018-04-18T09:29:49.340Z,101273
2018-04-18T09:32:17.528Z,101274
2018-04-18T09:34:45.645Z,101273
2018-04-18T09:37:13.802Z,101273
2018-04-18T09:39:43.427Z,101279
2018-04-18T09:42:11.533Z,101276
2018-04-18T09:44:39.666Z,101276
2018-04-18T09:47:08.612Z,101281
2018-04-18T09:49:36.781Z,101282
2018-04-18T09:52:04.989Z,101277
2018-04-18T09:54:33.153Z,101278
2018-04-18T09:57:01.349Z,101284
2018-04-18T09:59:29.493Z,101283
2018-04-18T10:02:04.269Z,101280
2018-04-18T10:04:32.524Z,101276
2018-04-18T10:07:00.647Z,101279
2018-04-18T10:09:29.555Z,101281
2018-04-18T10:11:57.669Z,101278
2018-04-18T10:14:25.865Z,101291
2018-04-18T10:16:54.089Z,101286
2018-04-18T10:19:22.234Z,101280
2018-04-18T10:21:50.368Z,101285
2018-04-18T10:24:18.478Z,101277
2018-04-18T10:26:46.684Z,101270
2018-04-18T10:29:16.086Z,101276
2018-04-18T10:31:45.013Z,101271
2018-04-18T10:34:13.133Z,101279
2018-04-18T10:36:41.308Z,101276
2018-04-18T10:39:09.451Z,101272
2018-04-18T10:41:37.623Z,101279
2018-04-18T10:44:05.738Z,101268
2018-04-18T10:46:33.851Z,101275
2018-04-18T10:49:02.755Z,101283
2018-04-18T10:51:31.757Z,101283
2018-04-18T10:53:59.906Z,101279
2018-04-18T10:56:28.029Z,101284
2018-04-18T10:58:56.193Z,101284
2018-04-18T11:01:24.314Z,101281
2018-04-18T11:03:52.438Z,101285
2018-04-18T11:06:21.338Z,101278
2018-04-18T11:08:50.373Z,101277
2018-04-18T11:11:18.489Z,101277
2018-04-18T11:13:46.696Z,101281
2018-04-18T11:16:14.940Z,101273
2018-04-18T11:18:43.124Z,101279
2018-04-18T11:21:11.222Z,101273
2018-04-18T11:23:40.106Z,101263
2018-04-18T11:26:09.044Z,101262
2018-04-18T11:28:37.921Z,101260
2018-04-18T11:31:06.050Z,101269
2018-04-18T11:33:34.168Z,101256
2018-04-18T11:36:03.130Z,101262
2018-04-18T11:38:32.141Z,101258
2018-04-18T11:41:00.471Z,101254
2018-04-18T11:43:28.618Z,101249
2018-04-18T11:45:56.744Z,101254
2018-04-18T11:48:24.877Z,101257
2018-04-18T11:50:53.026Z,101259
2018-04-18T11:53:21.257Z,101264
2018-04-18T11:55:49.386Z,101261
2018-04-18T11:58:17.532Z,101264
2018-04-18T12:00:45.715Z,101256
2018-04-18T12:03:13.980Z,101254
2018-04-18T12:05:42.142Z,101251
2018-04-18T12:08:10.273Z,101245
2018-04-18T12:10:38.492Z,101252
2018-04-18T12:13:06.627Z,101245
2018-04-18T12:15:34.804Z,101248
2018-04-18T12:18:03.799Z,101248
2018-04-18T12:20:31.936Z,101247
2018-04-18T12:23:00.110Z,101245
2018-04-18T12:25:28.290Z,101241
2018-04-18T12:27:56.480Z,101252
2018-04-18T12:30:24.682Z,101242
2018-04-18T12:32:52.815Z,101251
2018-04-18T12:35:21.114Z,101241
2018-04-18T12:37:49.485Z,101241
2018-04-18T12:40:17.638Z,101244
2018-04-18T12:42:46.592Z,101248
2018-04-18T12:45:14.793Z,101246
2018-04-18T12:47:43.841Z,101245
2018-04-18T12:50:11.989Z,101243
2018-04-18T12:52:40.195Z,101243
2018-04-18T12:55:08.342Z,101244
2018-04-18T12:57:36.510Z,101238
2018-04-18T13:00:04.658Z,101234
2018-04-18T13:02:32.783Z,101243
2018-04-18T13:05:00.990Z,101239
2018-04-18T13:07:29.165Z,101234
2018-04-18T13:09:57.311Z,101229
2018-04-18T13:12:26.298Z,101230
2018-04-18T13:14:54.478Z,101230
2018-04-18T13:17:23.411Z,101226
2018-04-18T13:19:51.529Z,101228
2018-04-18T13:22:19.697Z,101221
2018-04-18T13:24:47.805Z,101223
2018-04-18T13:27:15.962Z,101221
2018-04-18T13:29:44.079Z,101221
2018-04-18T13:32:12.980Z,101218
2018-04-18T13:34:41.108Z,101222
2018-04-18T13:37:09.364Z,101221
2018-04-18T13:39:37.493Z,101227
2018-04-18T13:42:06.395Z,101223
2018-04-18T13:44:35.290Z,101213
2018-04-18T13:47:04.173Z,101220
2018-04-18T13:49:32.314Z,101215
2018-04-18T13:52:00.430Z,101221
2018-04-18T13:54:28.571Z,101213
2018-04-18T13:56:56.805Z,101226
2018-04-18T13:59:26.153Z,101221
2018-04-18T14:01:54.278Z,101219
2018-04-18T14:04:22.536Z,101216
2018-04-18T14:06:50.688Z,101213
2018-04-18T14:09:18.818Z,101214
2018-04-18T14:11:47.870Z,101214
2018-04-18T14:14:16.052Z,101214
2018-04-18T14:16:44.405Z,101206
2018-04-18T14:19:12.552Z,101215
2018-04-18T14:21:41.459Z,101210
2018-04-18T14:24:10.359Z,101209
2018-04-18T14:26:38.531Z,101205
2018-04-18T14:29:07.437Z,101212
2018-04-18T14:31:35.700Z,101215
2018-04-18T14:34:04.633Z,101210
2018-04-18T14:36:32.825Z,101215
2018-04-18T14:39:00.960Z,101209
2018-04-18T14:41:29.858Z,101214
2018-04-18T14:43:58.815Z,101209
2018-04-18T14:46:26.957Z,101201
2018-04-18T14:48:55.114Z,101205
2018-04-18T14:51:23.267Z,101196
2018-04-18T14:53:51.425Z,101182
2018-04-18T14:56:19.553Z,101196
2018-04-18T14:58:47.674Z,101195
2018-04-18T15:01:15.859Z,101197
2018-04-18T15:03:43.987Z,101196
2018-04-18T15:06:12.153Z,101198
2018-04-18T15:08:41.115Z,101198
2018-04-18T15:11:10.010Z,101205
2018-04-18T15:13:38.173Z,101202
2018-04-18T15:16:06.340Z,101195
2018-04-18T15:18:34.564Z,101196
2018-04-18T15:21:02.700Z,101190
2018-04-18T15:23:31.511Z,101196
2018-04-18T15:25:59.628Z,101191
2018-04-18T15:28:27.891Z,101191
2018-04-18T15:30:56.012Z,101180
2018-04-18T15:33:24.152Z,101191
2018-04-18T15:35:53.038Z,101183
2018-04-18T15:38:21.171Z,101174
2018-04-18T15:40:49.993Z,101179
2018-04-18T15:43:18.146Z,101178
2018-04-18T15:45:46.287Z,101183
2018-04-18T15:48:15.142Z,101180
2018-04-18T15:50:43.304Z,101186
2018-04-18T15:53:12.223Z,101182
2018-04-18T15:55:40.379Z,101180
2018-04-18T15:58:08.534Z,101186
2018-04-18T16:00:36.712Z,101178
2018-04-18T16:03:04.896Z,101176
2018-04-18T16:05:33.036Z,101170
2018-04-18T16:08:01.932Z,101168
2018-04-18T16:10:30.885Z,101170
2018-04-18T16:12:59.016Z,101172
2018-04-18T16:15:27.200Z,101169
2018-04-18T16:17:55.327Z,101166
2018-04-18T16:20:23.470Z,101165
2018-04-18T16:22:51.621Z,101164
2018-04-18T16:25:19.834Z,101164
2018-04-18T16:27:48.005Z,101164
2018-04-18T16:30:34.076Z,101159
2018-04-18T16:33:02.244Z,101155
2018-04-18T16:35:31.203Z,101155
2018-04-18T16:37:59.410Z,101155
2018-04-18T16:40:28.432Z,101158
2018-04-18T16:42:58.471Z,101157
2018-04-18T16:45:26.664Z,101151
2018-04-18T16:47:54.806Z,101150
2018-04-18T16:50:23.301Z,101155
2018-04-18T16:52:51.503Z,101148
2018-04-18T16:55:19.656Z,101149
2018-04-18T16:57:47.850Z,101154
2018-04-18T17:00:16.032Z,101150
2018-04-18T17:02:44.240Z,101143
2018-04-18T17:05:13.953Z,101142
2018-04-18T17:07:43.721Z,101146
2018-04-18T17:10:11.951Z,101138
2018-04-18T17:12:40.058Z,101138
2018-04-18T17:15:08.989Z,101141
2018-04-18T17:17:37.156Z,101135
2018-04-18T17:20:05.283Z,101133
2018-04-18T17:22:34.263Z,101137
2018-04-18T17:25:02.504Z,101141
2018-04-18T17:27:30.688Z,101135
2018-04-18T17:29:58.867Z,101132
2018-04-18T17:32:26.979Z,101143
2018-04-18T17:34:55.212Z,101140
2018-04-18T17:37:23.468Z,101138
2018-04-18T17:39:52.455Z,101145
2018-04-18T17:42:20.580Z,101140
2018-04-18T17:44:48.697Z,101143
2018-04-18T17:47:16.873Z,101152
2018-04-18T17:49:45.036Z,101149
2018-04-18T17:52:13.266Z,101150
2018-04-18T17:54:42.265Z,101158
2018-04-18T17:57:11.237Z,101144
2018-04-18T17:59:40.903Z,101146
2018-04-18T18:02:09.160Z,101151
2018-04-18T18:04:37.464Z,101144
2018-04-18T18:07:05.632Z,101150
2018-04-18T18:09:34.015Z,101155
2018-04-18T18:12:02.136Z,101159
2018-04-18T18:14:30.267Z,101152
2018-04-18T18:16:58.443Z,101161
2018-04-18T18:19:26.662Z,101157
2018-04-18T18:21:55.017Z,101155
2018-04-18T18:24:23.213Z,101159
2018-04-18T18:26:51.666Z,101161
2018-04-18T18:29:19.799Z,101158
2018-04-18T18:31:47.972Z,101161
2018-04-18T18:34:16.877Z,101158
2018-04-18T18:36:45.219Z,101163
2018-04-18T18:39:13.565Z,101168
2018-04-18T18:41:42.751Z,101164
2018-04-18T18:44:11.711Z,101171
2018-04-18T18:46:40.525Z,101170
2018-04-18T18:49:08.652Z,101175
2018-04-18T18:51:36.805Z,101170
2018-04-18T18:54:05.691Z,101175
2018-04-18T18:56:34.598Z,101190
2018-04-18T18:59:03.485Z,101184
2018-04-18T19:01:32.385Z,101194
2018-04-18T19:04:01.277Z,101192
2018-04-18T19:06:30.168Z,101182
2018-04-18T19:08:59.095Z,101189
2018-04-18T19:11:27.216Z,101198
2018-04-18T19:13:55.398Z,101184
2018-04-18T19:16:23.532Z,101198
2018-04-18T19:18:51.716Z,101206
2018-04-18T19:21:19.950Z,101204
2018-04-18T19:23:48.794Z,101199
2018-04-18T19:26:16.964Z,101194
2018-04-18T19:28:45.149Z,101199
2018-04-18T19:31:13.244Z,101199
2018-04-18T19:33:41.358Z,101204
2018-04-18T19:36:10.294Z,101202
2018-04-18T19:38:38.412Z,101204
2018-04-18T19:41:06.554Z,101204
2018-04-18T19:43:34.695Z,101201
2018-04-18T19:46:03.589Z,101200
2018-04-18T19:48:32.483Z,101209
2018-04-18T19:51:01.411Z,101209
2018-04-18T19:53:29.543Z,101203
2018-04-18T19:55:57.706Z,101202
2018-04-18T19:58:25.818Z,101197
2018-04-18T20:00:54.711Z,101199
2018-04-18T20:03:23.612Z,101199
2018-04-18T20:05:51.751Z,101199
2018-04-18T20:08:19.864Z,101208
2018-04-18T20:10:48.748Z,101209
2018-04-18T20:13:17.719Z,101198
2018-04-18T20:15:45.895Z,101198
2018-04-18T20:18:14.020Z,101207
2018-04-18T20:20:42.909Z,101212
2018-04-18T20:23:11.810Z,101201
2018-04-18T20:25:40.694Z,101209
2018-04-18T20:28:09.646Z,101211
2018-04-18T20:30:37.756Z,101212
2018-04-18T20:33:06.670Z,101211
2018-04-18T20:35:35.550Z,101201
2018-04-18T20:38:03.700Z,101208
2018-04-18T20:40:32.601Z,101208
2018-04-18T20:43:00.721Z,101213
2018-04-18T20:45:28.854Z,101200
2018-04-18T20:47:56.987Z,101207
2018-04-18T20:50:25.132Z,101209
2018-04-18T20:52:54.029Z,101202
2018-04-18T20:55:22.963Z,101201
2018-04-18T20:57:51.087Z,101207
2018-04-18T21:00:19.238Z,101208
2018-04-18T21:02:47.381Z,101204
2018-04-18T21:05:15.547Z,101202
2018-04-18T21:07:43.657Z,101200
2018-04-18T21:10:11.778Z,101213
2018-04-18T21:12:39.902Z,101206
2018-04-18T21:15:08.051Z,101209
2018-04-18T21:17:36.182Z,101207
2018-04-18T21:20:04.309Z,101218
2018-04-18T21:22:33.193Z,101206
2018-04-18T21:25:02.098Z,101208
2018-04-18T21:27:30.972Z,101210
2018-04-18T21:29:59.915Z,101211
2018-04-18T21:32:28.053Z,101205
2018-04-18T21:34:56.172Z,101207
2018-04-18T21:37:24.298Z,101220
2018-04-18T21:39:52.408Z,101209
2018-04-18T21:42:21.315Z,101218
2018-04-18T21:44:49.425Z,101217
2018-04-18T21:47:17.538Z,101222
2018-04-18T21:49:46.444Z,101220
2018-04-18T21:52:15.320Z,101222
2018-04-18T21:54:44.214Z,101225
2018-04-18T21:57:12.341Z,101231
2018-04-18T21:59:40.466Z,101222
2018-04-18T22:02:08.573Z,101226
2018-04-18T22:04:36.693Z,101228
2018-04-18T22:07:04.825Z,101228
2018-04-18T22:09:32.952Z,101221
2018-04-18T22:12:01.953Z,101219
2018-04-18T22:14:30.061Z,101223
2018-04-18T22:16:59.045Z,101219
2018-04-18T22:19:27.130Z,101223
2018-04-18T22:21:56.011Z,101220
2018-04-18T22:24:24.916Z,101217
2018-04-18T22:26:53.038Z,101229
2018-04-18T22:29:21.182Z,101215
2018-04-18T22:31:50.064Z,101222
2018-04-18T22:34:19.366Z,101222
2018-04-18T22:36:48.242Z,101233
2018-04-18T22:39:16.374Z,101230
2018-04-18T22:41:44.518Z,101235
2018-04-18T22:44:12.638Z,101232
2018-04-18T22:46:40.744Z,101240
2018-04-18T22:49:08.885Z,101234
2018-04-18T22:51:36.989Z,101238
2018-04-18T22:54:05.103Z,101240
2018-04-18T22:56:33.217Z,101248
2018-04-18T22:59:01.338Z,101243
2018-04-18T23:01:29.434Z,101242
2018-04-18T23:03:57.618Z,101238
2018-04-18T23:06:25.739Z,101245
2018-04-18T23:08:53.877Z,101246
2018-04-18T23:11:22.825Z,101244
2018-04-18T23:13:50.950Z,101240
2018-04-18T23:16:19.845Z,101243
2018-04-18T23:18:48.778Z,101244
2018-04-18T23:21:16.900Z,101242
2018-04-18T23:23:45.036Z,101237
2018-04-18T23:26:13.136Z,101247
2018-04-18T23:28:41.257Z,101233
2018-04-18T23:31:10.136Z,101234
2018-04-18T23:33:38.284Z,101238
2018-04-18T23:36:06.397Z,101243
2018-04-18T23:38:35.282Z,101235
2018-04-18T23:41:04.197Z,101236
2018-04-18T23:43:33.081Z,101235
2018-04-18T23:46:01.975Z,101229
2018-04-18T23:48:30.859Z,101228
2018-04-18T23:50:58.989Z,101227
2018-04-18T23:53:27.092Z,101227
2018-04-18T23:55:55.206Z,101223
2018-04-18T23:58:24.091Z,101224
